Cygnet Bay, Australia
Current Conditions -  °F | °C
As of 8:00 AM on Thursday 23 Oct 2014 (Local Time) from YCIN Reporting Station
Broken Clouds Broken Clouds  
Wind Chill: 84°   Ceiling: 2100
Heat Index: 91°   Visibility: NA
Dew Point: 73°   Wind: 8mph
Humidity: 70%   Direction: 340°NNW
Pressure: 29.91"   Gusts: NA
Location:  16.44°S, 123.01°E
Report Text: YCIN 230000Z AUTO 34007KT 300V040 //// // BKN021 29/23 Q1013
Loading
Personal Weather Stations






























Interactive Weather Map
Tropical Storm Tracking
New forecast layout! Learn more

10-Day Weather Forecast

Advertisements
Track Severe Weather on mobile